Time;durP1;ratioP1;P1;durP2;ratioP2;P2;SDS_P1;SDS_P2;PMS_P1;PMS_P2;Temp;Humidity;BMP_temperature;BMP_pressure;BME280_temperature;BME280_humidity;BME280_pressure;Samples;Min_cycle;Max_cycle;Signal;HPM_P1;HPM_P2
2022/01/17 00:02:00;;;;;;;25.05;12.13;;;;;;;;;;4935352;29;20106;-76
2022/01/17 00:04:25;;;;;;;20.73;10.65;;;;;;;;;;4936369;29;20019;-76
2022/01/17 00:06:50;;;;;;;22.08;11.90;;;;;;;;;;4936373;29;20020;-76
2022/01/17 00:09:15;;;;;;;23.00;11.90;;;;;;;;;;4919189;29;20077;-75
2022/01/17 00:11:44;;;;;;;24.25;11.98;;;;;;;;;;4936348;29;20093;-76
2022/01/17 00:14:17;;;;;;;21.30;10.68;;;;;;;;;;4919119;29;20102;-76
2022/01/17 00:16:49;;;;;;;22.20;10.85;;;;;;;;;;4936653;29;20107;-76
2022/01/17 00:19:34;;;;;;;26.38;12.40;;;;;;;;;;4918878;29;20034;-76
2022/01/17 00:21:59;;;;;;;22.38;10.88;;;;;;;;;;4919095;29;20023;-76
2022/01/17 00:24:25;;;;;;;20.67;11.35;;;;;;;;;;4935716;29;20024;-76
2022/01/17 00:26:52;;;;;;;23.20;11.68;;;;;;;;;;4935792;29;20042;-75
2022/01/17 00:29:17;;;;;;;19.60;9.85;;;;;;;;;;4936114;29;20024;-75
2022/01/17 00:31:42;;;;;;;24.30;11.57;;;;;;;;;;4936173;29;20024;-75
2022/01/17 00:34:10;;;;;;;21.75;11.95;;;;;;;;;;4936224;29;20473;-75
2022/01/17 00:36:35;;;;;;;20.53;10.57;;;;;;;;;;4935717;29;20103;-75
2022/01/17 00:39:01;;;;;;;20.90;10.13;;;;;;;;;;4936056;29;20495;-76
2022/01/17 00:41:27;;;;;;;22.23;11.25;;;;;;;;;;4937747;29;20050;-76
2022/01/17 00:43:52;;;;;;;20.02;9.82;;;;;;;;;;4936574;29;20024;-76
2022/01/17 00:46:17;;;;;;;21.83;10.45;;;;;;;;;;4936083;29;20031;-76
2022/01/17 00:48:42;;;;;;;20.00;8.95;;;;;;;;;;4936482;29;20480;-76
2022/01/17 00:51:07;;;;;;;19.52;10.40;;;;;;;;;;4936655;29;20461;-75
2022/01/17 00:53:36;;;;;;;17.92;9.55;;;;;;;;;;4936717;29;20473;-76
2022/01/17 00:56:02;;;;;;;22.15;11.15;;;;;;;;;;4918652;29;20023;-75
2022/01/17 00:58:27;;;;;;;17.48;9.80;;;;;;;;;;4918253;29;20024;-76
2022/01/17 01:00:52;;;;;;;20.75;10.80;;;;;;;;;;4918508;29;20028;-76
2022/01/17 01:03:17;;;;;;;24.75;11.05;;;;;;;;;;4919201;29;20142;-76
2022/01/17 01:05:43;;;;;;;20.25;10.65;;;;;;;;;;4936759;29;20030;-76
2022/01/17 01:08:08;;;;;;;20.20;9.57;;;;;;;;;;4936150;29;20020;-76
2022/01/17 01:10:33;;;;;;;20.35;9.93;;;;;;;;;;4935383;29;20020;-76
2022/01/17 01:12:58;;;;;;;20.27;11.10;;;;;;;;;;4935734;29;20027;-75
2022/01/17 01:18:13;;;;;;;18.27;9.77;;;;;;;;;;4939233;29;20111;-76
2022/01/17 01:28:32;;;;;;;20.13;10.32;;;;;;;;;;4938461;29;20503;-75
2022/01/17 01:30:59;;;;;;;19.55;10.93;;;;;;;;;;4937915;29;20012;-76
2022/01/17 01:33:37;;;;;;;20.17;10.23;;;;;;;;;;4920700;29;20043;-76
2022/01/17 01:36:12;;;;;;;17.92;10.05;;;;;;;;;;4938228;29;20051;-76
2022/01/17 01:38:40;;;;;;;19.33;9.90;;;;;;;;;;4938446;29;20078;-75
2022/01/17 01:41:05;;;;;;;18.75;10.07;;;;;;;;;;4937755;29;20028;-76
2022/01/17 01:43:30;;;;;;;18.30;10.10;;;;;;;;;;4938133;29;20512;-76
2022/01/17 01:46:00;;;;;;;16.73;9.27;;;;;;;;;;4937839;29;20022;-76
2022/01/17 01:48:26;;;;;;;16.58;7.63;;;;;;;;;;4937859;29;20047;-76
2022/01/17 01:50:51;;;;;;;15.50;9.07;;;;;;;;;;4938255;29;20484;-75
2022/01/17 01:53:17;;;;;;;16.85;9.13;;;;;;;;;;4938735;29;20058;-75
2022/01/17 01:55:42;;;;;;;21.02;10.45;;;;;;;;;;4937586;29;20023;-76
2022/01/17 01:58:08;;;;;;;18.23;10.48;;;;;;;;;;4920150;29;20473;-76
2022/01/17 02:00:34;;;;;;;18.65;9.73;;;;;;;;;;4937040;29;20020;-75
2022/01/17 02:02:59;;;;;;;18.92;10.40;;;;;;;;;;4937287;29;20271;-76
2022/01/17 02:05:25;;;;;;;19.75;10.35;;;;;;;;;;4936963;29;20083;-75
2022/01/17 02:07:50;;;;;;;17.73;10.15;;;;;;;;;;4936867;29;20059;-75
2022/01/17 02:10:15;;;;;;;18.13;10.10;;;;;;;;;;4936572;29;20012;-75
2022/01/17 02:12:41;;;;;;;18.45;10.25;;;;;;;;;;4937346;29;20032;-75
2022/01/17 02:15:10;;;;;;;16.58;9.57;;;;;;;;;;4936906;29;20015;-75
2022/01/17 02:17:44;;;;;;;17.08;9.70;;;;;;;;;;4936984;29;20023;-75
2022/01/17 02:20:13;;;;;;;19.90;10.50;;;;;;;;;;4936807;29;20031;-75
2022/01/17 02:22:39;;;;;;;16.80;9.10;;;;;;;;;;4936469;29;20028;-75
2022/01/17 02:25:05;;;;;;;17.05;10.00;;;;;;;;;;4936515;29;20070;-75
2022/01/17 02:27:30;;;;;;;18.80;9.85;;;;;;;;;;4936417;29;20055;-75
2022/01/17 02:29:55;;;;;;;18.17;10.20;;;;;;;;;;4936285;29;20020;-75
2022/01/17 02:32:20;;;;;;;19.35;8.63;;;;;;;;;;4936538;29;20019;-75
2022/01/17 02:34:46;;;;;;;17.90;10.23;;;;;;;;;;4936568;29;20020;-74
2022/01/17 02:37:11;;;;;;;18.40;9.73;;;;;;;;;;4936648;29;20067;-75
2022/01/17 02:39:37;;;;;;;15.85;8.98;;;;;;;;;;4936174;29;20385;-75
2022/01/17 02:42:03;;;;;;;20.10;9.77;;;;;;;;;;4919195;29;20123;-75
2022/01/17 02:44:28;;;;;;;16.08;9.05;;;;;;;;;;4919827;29;20023;-75
2022/01/17 02:46:53;;;;;;;16.30;8.98;;;;;;;;;;4937522;29;20542;-75
2022/01/17 02:49:18;;;;;;;14.43;8.23;;;;;;;;;;4936848;29;20476;-75
2022/01/17 02:51:48;;;;;;;13.63;8.00;;;;;;;;;;4936927;29;20030;-75
2022/01/17 02:54:13;;;;;;;17.65;8.50;;;;;;;;;;4937765;29;20023;-75
2022/01/17 02:56:38;;;;;;;15.20;7.90;;;;;;;;;;4936900;29;20397;-75
2022/01/17 02:59:03;;;;;;;15.55;8.27;;;;;;;;;;4936437;29;20103;-74
2022/01/17 03:01:29;;;;;;;15.32;7.82;;;;;;;;;;4936209;29;20027;-75
2022/01/17 03:03:54;;;;;;;15.85;8.52;;;;;;;;;;4935833;29;20019;-75
2022/01/17 03:06:20;;;;;;;18.92;8.45;;;;;;;;;;4936131;29;20122;-75
2022/01/17 03:08:45;;;;;;;14.73;6.45;;;;;;;;;;4918656;29;20019;-75
2022/01/17 03:11:12;;;;;;;15.60;8.00;;;;;;;;;;4936839;29;20374;-75
2022/01/17 03:13:39;;;;;;;15.13;7.35;;;;;;;;;;4936110;29;20023;-75
2022/01/17 03:16:07;;;;;;;16.10;8.00;;;;;;;;;;4936490;29;20012;-75
2022/01/17 03:18:33;;;;;;;15.82;7.50;;;;;;;;;;4936287;29;20020;-75
2022/01/17 03:20:59;;;;;;;13.45;6.80;;;;;;;;;;4936704;29;20066;-76
2022/01/17 03:23:24;;;;;;;13.95;7.40;;;;;;;;;;4936907;29;20499;-76
2022/01/17 03:25:49;;;;;;;16.02;8.25;;;;;;;;;;4937198;29;20019;-75
2022/01/17 03:28:18;;;;;;;14.55;7.95;;;;;;;;;;4919680;29;20024;-75
2022/01/17 03:30:44;;;;;;;15.07;7.35;;;;;;;;;;4919449;29;20016;-76
2022/01/17 03:33:13;;;;;;;15.77;7.53;;;;;;;;;;4936646;29;20039;-76
2022/01/17 03:35:39;;;;;;;12.23;7.13;;;;;;;;;;4919698;29;20020;-76
2022/01/17 03:38:05;;;;;;;14.13;7.38;;;;;;;;;;4936231;29;20051;-76
2022/01/17 03:40:30;;;;;;;10.93;6.18;;;;;;;;;;4918722;29;20144;-76
2022/01/17 03:42:56;;;;;;;11.05;5.95;;;;;;;;;;4935402;29;20032;-76
2022/01/17 03:45:21;;;;;;;11.05;5.97;;;;;;;;;;4918686;29;20401;-76
2022/01/17 03:47:50;;;;;;;13.65;6.57;;;;;;;;;;4935710;29;20026;-76
2022/01/17 03:50:15;;;;;;;;;;;;;;;;;;4935961;29;20114;-76
2022/01/17 03:52:41;;;;;;;12.10;6.05;;;;;;;;;;4936596;29;20006;-76
2022/01/17 03:55:07;;;;;;;12.23;5.78;;;;;;;;;;4937315;29;20437;-76
2022/01/17 03:57:32;;;;;;;9.90;5.22;;;;;;;;;;4921817;29;20161;-76
2022/01/17 03:59:57;;;;;;;14.88;6.18;;;;;;;;;;4921264;29;20523;-76
2022/01/17 04:02:22;;;;;;;12.02;5.30;;;;;;;;;;4938915;29;20477;-76
2022/01/17 04:04:48;;;;;;;12.68;6.38;;;;;;;;;;4939998;29;20055;-75
2022/01/17 04:07:13;;;;;;;10.75;5.57;;;;;;;;;;4939464;29;20047;-75
2022/01/17 04:09:38;;;;;;;11.30;5.95;;;;;;;;;;4921798;29;20031;-76
2022/01/17 04:12:03;;;;;;;10.80;5.72;;;;;;;;;;4939555;29;20032;-76
2022/01/17 04:14:34;;;;;;;11.05;5.75;;;;;;;;;;4938859;29;20054;-76
2022/01/17 04:16:59;;;;;;;12.98;5.93;;;;;;;;;;4937226;29;20039;-76
2022/01/17 04:19:25;;;;;;;13.07;5.70;;;;;;;;;;4921389;29;20023;-76
2022/01/17 04:21:50;;;;;;;10.50;5.65;;;;;;;;;;4938236;29;20035;-76
2022/01/17 04:24:15;;;;;;;11.52;5.85;;;;;;;;;;4937629;29;20028;-76
2022/01/17 04:26:42;;;;;;;10.63;5.68;;;;;;;;;;4937418;29;20107;-75
2022/01/17 04:29:07;;;;;;;10.93;5.30;;;;;;;;;;4937440;29;20038;-75
2022/01/17 04:31:33;;;;;;;11.65;5.45;;;;;;;;;;4937908;29;20019;-76
2022/01/17 04:33:58;;;;;;;11.32;5.35;;;;;;;;;;4938178;29;20407;-76
2022/01/17 04:36:23;;;;;;;11.05;5.15;;;;;;;;;;4938458;29;20024;-76
2022/01/17 04:38:48;;;;;;;11.32;5.55;;;;;;;;;;4937710;29;20084;-76
2022/01/17 04:41:17;;;;;;;10.05;4.70;;;;;;;;;;4938583;29;20075;-75
2022/01/17 04:46:08;;;;;;;13.85;5.15;;;;;;;;;;4940426;29;20028;-76
2022/01/17 04:48:34;;;;;;;11.85;5.53;;;;;;;;;;4924229;29;20024;-75
2022/01/17 04:50:59;;;;;;;13.18;4.88;;;;;;;;;;4925406;29;20091;-75
2022/01/17 04:53:25;;;;;;;11.20;4.95;;;;;;;;;;4943897;29;20400;-75
2022/01/17 04:55:50;;;;;;;11.50;5.18;;;;;;;;;;4925889;29;20107;-75
2022/01/17 04:58:15;;;;;;;12.32;5.20;;;;;;;;;;4943528;29;20034;-75
2022/01/17 05:00:46;;;;;;;10.18;4.72;;;;;;;;;;4943136;29;20027;-75
2022/01/17 05:03:22;;;;;;;12.38;4.80;;;;;;;;;;4942556;29;20030;-75
2022/01/17 05:05:48;;;;;;;10.15;4.38;;;;;;;;;;4942145;29;20182;-76
2022/01/17 05:08:13;;;;;;;12.07;5.07;;;;;;;;;;4941690;29;20101;-76
2022/01/17 05:10:44;;;;;;;11.05;4.30;;;;;;;;;;4943120;29;20034;-75
2022/01/17 05:13:14;;;;;;;8.75;4.47;;;;;;;;;;4925864;29;20019;-76
2022/01/17 05:15:47;;;;;;;9.23;4.28;;;;;;;;;;4945592;29;20016;-76
2022/01/17 05:20:56;;;;;;;9.82;4.63;;;;;;;;;;4944871;29;20445;-75
2022/01/17 05:23:21;;;;;;;10.05;4.43;;;;;;;;;;4926218;29;20023;-75
2022/01/17 05:25:46;;;;;;;10.20;4.47;;;;;;;;;;4927307;29;20030;-76
2022/01/17 05:28:12;;;;;;;9.57;4.00;;;;;;;;;;4941854;29;20024;-75
2022/01/17 05:30:37;;;;;;;10.63;4.05;;;;;;;;;;4924855;29;20030;-75
2022/01/17 05:33:02;;;;;;;9.40;4.15;;;;;;;;;;4922237;29;20054;-75
2022/01/17 05:35:28;;;;;;;6.07;3.38;;;;;;;;;;4922742;29;20181;-75
2022/01/17 05:37:53;;;;;;;7.22;3.78;;;;;;;;;;4939227;29;20023;-75
2022/01/17 05:40:18;;;;;;;8.35;3.40;;;;;;;;;;4921942;29;20075;-76
2022/01/17 05:42:44;;;;;;;7.53;2.95;;;;;;;;;;4940932;29;20038;-75
2022/01/17 05:45:10;;;;;;;8.10;3.15;;;;;;;;;;4939349;29;20030;-76
2022/01/17 05:47:35;;;;;;;8.13;2.42;;;;;;;;;;4940725;29;20027;-75
2022/01/17 05:50:02;;;;;;;5.47;1.80;;;;;;;;;;4940590;29;20027;-75
2022/01/17 05:52:28;;;;;;;5.88;2.10;;;;;;;;;;4941375;29;20042;-75
2022/01/17 05:54:53;;;;;;;6.93;2.25;;;;;;;;;;4941330;29;20469;-75
2022/01/17 05:57:18;;;;;;;6.28;2.00;;;;;;;;;;4939714;29;20098;-76
2022/01/17 05:59:44;;;;;;;9.52;2.15;;;;;;;;;;4922496;29;20090;-75
2022/01/17 06:02:09;;;;;;;5.70;2.08;;;;;;;;;;4940230;29;20030;-76
2022/01/17 06:04:35;;;;;;;8.60;1.95;;;;;;;;;;4939025;29;20095;-75
2022/01/17 06:07:00;;;;;;;7.43;1.75;;;;;;;;;;4939892;29;20036;-75
2022/01/17 06:09:25;;;;;;;5.15;1.55;;;;;;;;;;4938705;29;20059;-75
2022/01/17 06:11:51;;;;;;;6.32;1.40;;;;;;;;;;4922600;29;20047;-75
2022/01/17 06:14:18;;;;;;;7.00;1.50;;;;;;;;;;4938728;29;20027;-75
2022/01/17 06:16:44;;;;;;;7.15;1.52;;;;;;;;;;4939635;29;20034;-76
2022/01/17 06:19:09;;;;;;;5.22;1.08;;;;;;;;;;4922842;29;20166;-75
2022/01/17 06:21:34;;;;;;;5.45;1.15;;;;;;;;;;4939238;29;20473;-75
2022/01/17 06:24:01;;;;;;;4.75;0.98;;;;;;;;;;4921344;29;20032;-75
2022/01/17 06:26:27;;;;;;;8.65;1.75;;;;;;;;;;4937258;29;20040;-75
2022/01/17 06:28:52;;;;;;;13.68;1.83;;;;;;;;;;4919760;29;20027;-75
2022/01/17 06:31:17;;;;;;;15.73;2.08;;;;;;;;;;4937012;29;20103;-76
2022/01/17 06:33:42;;;;;;;8.35;1.20;;;;;;;;;;4937113;29;20503;-75
2022/01/17 06:36:08;;;;;;;5.55;1.10;;;;;;;;;;4937011;29;20098;-76
2022/01/17 06:38:33;;;;;;;10.48;1.52;;;;;;;;;;4937267;29;20023;-75
2022/01/17 06:40:59;;;;;;;6.20;1.25;;;;;;;;;;4919749;29;20059;-75
2022/01/17 06:43:24;;;;;;;11.98;1.35;;;;;;;;;;4936721;29;20027;-75
2022/01/17 06:45:49;;;;;;;6.65;1.55;;;;;;;;;;4936980;29;20020;-75
2022/01/17 06:48:14;;;;;;;11.57;1.73;;;;;;;;;;4919530;29;20114;-75
2022/01/17 06:50:40;;;;;;;9.48;1.38;;;;;;;;;;4936564;29;20030;-76
2022/01/17 06:53:05;;;;;;;10.57;1.77;;;;;;;;;;4919293;29;20114;-75
2022/01/17 06:55:30;;;;;;;12.52;2.55;;;;;;;;;;4936910;29;20102;-76
2022/01/17 06:57:56;;;;;;;8.52;1.55;;;;;;;;;;4936370;29;20385;-76
2022/01/17 07:00:21;;;;;;;5.55;1.58;;;;;;;;;;4919506;29;20040;-75
2022/01/17 07:02:46;;;;;;;11.70;1.70;;;;;;;;;;4936161;29;20020;-76
2022/01/17 07:05:12;;;;;;;6.97;1.40;;;;;;;;;;4936660;29;20031;-76
2022/01/17 07:07:37;;;;;;;6.35;1.35;;;;;;;;;;4936303;29;20384;-76
2022/01/17 07:10:03;;;;;;;10.30;1.58;;;;;;;;;;4936276;29;20012;-75
2022/01/17 07:12:28;;;;;;;11.95;1.55;;;;;;;;;;4937218;29;20023;-75
2022/01/17 07:14:53;;;;;;;6.40;1.20;;;;;;;;;;4943045;29;20020;-75
2022/01/17 07:17:19;;;;;;;5.50;1.75;;;;;;;;;;4919987;29;20031;-75
2022/01/17 07:19:44;;;;;;;7.10;0.82;;;;;;;;;;4919249;29;20023;-75
2022/01/17 07:22:10;;;;;;;9.75;2.13;;;;;;;;;;4940930;29;20022;-75
2022/01/17 07:24:36;;;;;;;11.40;1.40;;;;;;;;;;4942734;29;20102;-76
2022/01/17 07:27:01;;;;;;;12.07;1.40;;;;;;;;;;4942099;29;20480;-75
2022/01/17 07:29:29;;;;;;;6.25;1.67;;;;;;;;;;4941657;29;20019;-75
2022/01/17 07:31:55;;;;;;;9.27;1.73;;;;;;;;;;4942877;29;20103;-75
2022/01/17 07:34:20;;;;;;;6.82;1.27;;;;;;;;;;4925566;29;20051;-75
2022/01/17 07:36:46;;;;;;;9.52;1.55;;;;;;;;;;4941989;29;20020;-75
2022/01/17 07:39:11;;;;;;;14.25;1.42;;;;;;;;;;4938223;29;20062;-75
2022/01/17 07:41:36;;;;;;;8.20;1.20;;;;;;;;;;4923179;29;20027;-75
2022/01/17 07:44:03;;;;;;;7.18;1.73;;;;;;;;;;4921162;29;20103;-75
2022/01/17 07:46:35;;;;;;;5.55;1.50;;;;;;;;;;4936706;29;20024;-75
2022/01/17 07:49:44;;;;;;;5.20;1.33;;;;;;;;;;4918786;29;20114;-76
2022/01/17 07:51:51;;;;;;;5.18;1.35;;;;;;;;;;4930034;29;20051;-75
2022/01/17 07:54:18;;;;;;;10.10;1.20;;;;;;;;;;4918962;29;20028;-76
2022/01/17 07:56:43;;;;;;;6.00;1.08;;;;;;;;;;4936181;29;20019;-76
2022/01/17 07:59:09;;;;;;;8.18;1.20;;;;;;;;;;4919780;29;20027;-76
2022/01/17 08:01:36;;;;;;;7.32;1.02;;;;;;;;;;4936878;29;20034;-75
2022/01/17 08:04:01;;;;;;;15.95;1.50;;;;;;;;;;4935283;29;20027;-74
2022/01/17 08:06:26;;;;;;;7.05;1.13;;;;;;;;;;4936628;29;20433;-75
2022/01/17 08:08:51;;;;;;;5.53;1.00;;;;;;;;;;4921398;29;20110;-75
2022/01/17 08:11:17;;;;;;;8.30;1.38;;;;;;;;;;4937792;29;20026;-75
2022/01/17 08:13:43;;;;;;;10.07;1.63;;;;;;;;;;4936876;29;20012;-76
2022/01/17 08:16:08;;;;;;;7.18;1.20;;;;;;;;;;4936557;29;20059;-76
2022/01/17 08:18:33;;;;;;;9.85;1.60;;;;;;;;;;4938898;29;20067;-76
2022/01/17 08:20:58;;;;;;;12.50;1.23;;;;;;;;;;4939064;29;20407;-76
2022/01/17 08:23:24;;;;;;;7.32;0.82;;;;;;;;;;4937220;29;20016;-76
2022/01/17 08:25:49;;;;;;;8.60;1.30;;;;;;;;;;4931042;29;20023;-76
2022/01/17 08:28:15;;;;;;;8.77;2.53;;;;;;;;;;4950718;29;20039;-75
2022/01/17 08:30:40;;;;;;;13.35;1.27;;;;;;;;;;4948199;29;20032;-76
2022/01/17 08:33:05;;;;;;;6.65;1.27;;;;;;;;;;4946656;29;20401;-75
2022/01/17 08:35:31;;;;;;;6.20;1.20;;;;;;;;;;4943759;29;20024;-76
2022/01/17 08:37:56;;;;;;;8.52;1.30;;;;;;;;;;4945282;29;20031;-76
2022/01/17 08:40:22;;;;;;;7.95;1.02;;;;;;;;;;4940114;29;20062;-75
2022/01/17 08:42:49;;;;;;;10.63;1.20;;;;;;;;;;4926904;29;20086;-76
2022/01/17 08:45:15;;;;;;;8.00;1.27;;;;;;;;;;4945127;29;20123;-76
2022/01/17 08:47:40;;;;;;;7.97;1.20;;;;;;;;;;4946169;29;20062;-76
2022/01/17 08:50:07;;;;;;;9.45;1.40;;;;;;;;;;4943120;29;20027;-75
2022/01/17 08:52:32;;;;;;;7.18;1.48;;;;;;;;;;4940050;29;20087;-75
2022/01/17 08:54:58;;;;;;;5.72;1.30;;;;;;;;;;4939186;29;20055;-74
2022/01/17 08:57:23;;;;;;;5.80;1.10;;;;;;;;;;4938864;29;20039;-75
2022/01/17 08:59:49;;;;;;;4.47;1.08;;;;;;;;;;4921661;29;20480;-75
2022/01/17 09:02:14;;;;;;;9.93;1.58;;;;;;;;;;4923144;29;20026;-75
2022/01/17 09:04:42;;;;;;;4.13;1.00;;;;;;;;;;4938372;29;20114;-74
2022/01/17 09:07:09;;;;;;;8.15;1.10;;;;;;;;;;4921292;29;20070;-74
2022/01/17 09:09:34;;;;;;;5.43;1.70;;;;;;;;;;4944295;29;20031;-74
2022/01/17 09:11:59;;;;;;;5.57;1.08;;;;;;;;;;4945852;29;20023;-75
2022/01/17 09:14:27;;;;;;;5.32;1.00;;;;;;;;;;4944726;29;20091;-75
2022/01/17 09:16:52;;;;;;;4.75;1.00;;;;;;;;;;4929994;29;20020;-75
2022/01/17 09:19:17;;;;;;;3.95;0.80;;;;;;;;;;4941201;29;20026;-75
2022/01/17 09:21:42;;;;;;;5.57;1.13;;;;;;;;;;4921716;29;20148;-74
2022/01/17 09:24:08;;;;;;;4.28;0.93;;;;;;;;;;4937464;29;20039;-74
2022/01/17 09:26:33;;;;;;;7.85;1.58;;;;;;;;;;4920709;29;20229;-75
2022/01/17 09:28:58;;;;;;;7.47;0.90;;;;;;;;;;4937649;29;20130;-75
2022/01/17 09:31:23;;;;;;;4.15;0.88;;;;;;;;;;4937419;29;20433;-74
2022/01/17 09:33:49;;;;;;;8.70;0.90;;;;;;;;;;4936227;29;20055;-75
2022/01/17 09:36:14;;;;;;;7.15;1.10;;;;;;;;;;4936984;29;20028;-75
2022/01/17 09:38:40;;;;;;;5.15;1.00;;;;;;;;;;4919978;29;20035;-75
2022/01/17 09:41:06;;;;;;;4.55;1.17;;;;;;;;;;4937098;29;20086;-75
2022/01/17 09:43:32;;;;;;;3.88;1.30;;;;;;;;;;4935920;29;20035;-75
2022/01/17 09:45:57;;;;;;;5.95;1.20;;;;;;;;;;4918144;29;21621;-74
2022/01/17 09:48:33;;;;;;;6.28;0.98;;;;;;;;;;4932625;29;20032;-75
2022/01/17 09:51:08;;;;;;;7.07;1.33;;;;;;;;;;4917002;29;20028;-75
2022/01/17 09:53:38;;;;;;;5.85;1.20;;;;;;;;;;4915935;29;20079;-75
2022/01/17 09:56:04;;;;;;;9.07;2.20;;;;;;;;;;4918321;29;20020;-75
2022/01/17 09:58:30;;;;;;;11.18;2.00;;;;;;;;;;4916963;29;20446;-74
2022/01/17 10:00:56;;;;;;;6.55;1.00;;;;;;;;;;4918295;29;20131;-75
2022/01/17 10:03:21;;;;;;;5.80;1.40;;;;;;;;;;4918623;29;20060;-74
2022/01/17 10:05:47;;;;;;;4.57;0.95;;;;;;;;;;4918344;29;20032;-75
2022/01/17 10:08:15;;;;;;;3.10;0.98;;;;;;;;;;4918055;29;20024;-75
2022/01/17 10:10:40;;;;;;;4.78;0.80;;;;;;;;;;4916645;29;20024;-75
2022/01/17 10:13:07;;;;;;;10.68;1.50;;;;;;;;;;4917937;29;20111;-74
2022/01/17 10:15:46;;;;;;;7.50;1.33;;;;;;;;;;4918303;29;20019;-75
2022/01/17 10:18:24;;;;;;;8.32;1.52;;;;;;;;;;4917620;29;20059;-75
2022/01/17 10:20:55;;;;;;;5.82;1.02;;;;;;;;;;4917670;29;20489;-75
2022/01/17 10:23:45;;;;;;;2.33;0.88;;;;;;;;;;4927158;29;20127;-75
2022/01/17 10:29:39;;;;;;;4.82;0.93;;;;;;;;;;4895505;29;20039;-75
2022/01/17 10:37:15;;;;;;;6.28;1.35;;;;;;;;;;4944114;29;20537;-75
2022/01/17 10:39:56;;;;;;;3.95;1.10;;;;;;;;;;4941734;29;20047;-75
2022/01/17 10:42:26;;;;;;;6.15;1.30;;;;;;;;;;4918571;29;20706;-75
2022/01/17 10:44:51;;;;;;;4.78;1.17;;;;;;;;;;4936335;29;20097;-75
2022/01/17 10:47:20;;;;;;;5.47;1.58;;;;;;;;;;4935889;29;20123;-75
2022/01/17 10:49:45;;;;;;;;;;;;;;;;;;4936736;29;20099;-75
2022/01/17 10:52:25;;;;;;;3.38;1.02;;;;;;;;;;4936010;29;20441;-76
2022/01/17 10:54:54;;;;;;;4.65;1.02;;;;;;;;;;4933560;29;20035;-75
2022/01/17 10:57:19;;;;;;;9.23;1.40;;;;;;;;;;4935658;29;20035;-74
2022/01/17 10:59:44;;;;;;;2.65;1.02;;;;;;;;;;4918635;29;20032;-75
2022/01/17 11:02:12;;;;;;;4.13;1.67;;;;;;;;;;4936741;29;20035;-75
2022/01/17 11:04:38;;;;;;;4.43;2.27;;;;;;;;;;4935433;29;20019;-75
2022/01/17 11:07:04;;;;;;;5.25;1.08;;;;;;;;;;4935554;29;20078;-75
2022/01/17 11:09:39;;;;;;;10.15;1.55;;;;;;;;;;4934984;29;20031;-75
2022/01/17 11:12:12;;;;;;;6.32;1.65;;;;;;;;;;4935790;29;20099;-75
2022/01/17 11:14:41;;;;;;;6.18;1.48;;;;;;;;;;4936035;29;20496;-75
2022/01/17 11:17:10;;;;;;;5.47;1.40;;;;;;;;;;4918703;29;20016;-75
2022/01/17 11:22:20;;;;;;;5.00;1.50;;;;;;;;;;4935332;29;20050;-75
2022/01/17 11:24:46;;;;;;;3.78;1.55;;;;;;;;;;4935193;29;20481;-76
2022/01/17 11:27:11;;;;;;;4.20;1.40;;;;;;;;;;4935015;29;20447;-75
2022/01/17 11:29:37;;;;;;;4.32;1.40;;;;;;;;;;4934461;29;20043;-76
2022/01/17 11:32:03;;;;;;;7.05;1.23;;;;;;;;;;4934496;29;20090;-76
2022/01/17 11:34:29;;;;;;;4.15;1.33;;;;;;;;;;4934638;29;20024;-75
2022/01/17 11:36:54;;;;;;;5.30;1.50;;;;;;;;;;4933861;29;20023;-75
2022/01/17 11:39:19;;;;;;;9.40;1.80;;;;;;;;;;4934147;29;20111;-75
2022/01/17 11:41:49;;;;;;;5.63;1.60;;;;;;;;;;4934591;29;20067;-74
2022/01/17 11:44:14;;;;;;;8.82;1.85;;;;;;;;;;4932929;29;20024;-75
2022/01/17 11:46:51;;;;;;;3.05;1.23;;;;;;;;;;4934460;29;20024;-75
2022/01/17 11:49:31;;;;;;;4.75;1.30;;;;;;;;;;4933314;29;20036;-74
2022/01/17 11:52:14;;;;;;;8.55;1.50;;;;;;;;;;4932135;29;20028;-75
2022/01/17 11:54:44;;;;;;;9.68;1.58;;;;;;;;;;4933160;29;20027;-75
2022/01/17 11:57:18;;;;;;;4.35;1.20;;;;;;;;;;4928945;29;20035;-75
2022/01/17 11:59:48;;;;;;;6.38;1.50;;;;;;;;;;4933301;29;20031;-75
2022/01/17 12:02:21;;;;;;;3.50;1.10;;;;;;;;;;4915498;29;20066;-75
2022/01/17 12:05:10;;;;;;;2.20;0.75;;;;;;;;;;4914326;29;20075;-75
2022/01/17 12:07:37;;;;;;;2.45;0.80;;;;;;;;;;4933730;29;20031;-74
2022/01/17 12:10:06;;;;;;;5.35;1.00;;;;;;;;;;4901115;29;20035;-74
2022/01/17 12:12:32;;;;;;;3.08;1.00;;;;;;;;;;4898308;29;20016;-74
2022/01/17 12:14:58;;;;;;;2.90;0.90;;;;;;;;;;4914683;29;20052;-74
2022/01/17 12:17:23;;;;;;;2.47;0.90;;;;;;;;;;4916093;29;20021;-74
2022/01/17 12:20:04;;;;;;;3.85;1.13;;;;;;;;;;4913181;29;20024;-75
2022/01/17 12:22:30;;;;;;;2.95;1.38;;;;;;;;;;4934069;29;20055;-74
2022/01/17 12:25:00;;;;;;;2.25;0.88;;;;;;;;;;4934827;29;20039;-75
2022/01/17 12:27:26;;;;;;;4.15;1.80;;;;;;;;;;4934556;29;20028;-74
2022/01/17 12:29:53;;;;;;;3.70;1.10;;;;;;;;;;4934031;29;20506;-74
2022/01/17 12:32:24;;;;;;;5.43;1.30;;;;;;;;;;4934308;29;20087;-75
2022/01/17 12:34:50;;;;;;;3.08;1.00;;;;;;;;;;4934603;29;20065;-75
2022/01/17 12:37:29;;;;;;;2.67;1.10;;;;;;;;;;4933997;29;20072;-75
2022/01/17 12:40:07;;;;;;;2.15;0.63;;;;;;;;;;4934138;29;20028;-75
2022/01/17 12:42:32;;;;;;;1.70;0.77;;;;;;;;;;4934514;29;20115;-74
2022/01/17 12:45:01;;;;;;;3.65;0.90;;;;;;;;;;4917676;29;20107;-74
2022/01/17 12:47:26;;;;;;;;;;;;;;;;;;4934698;29;20086;-74
2022/01/17 12:49:51;;;;;;;2.15;0.70;;;;;;;;;;4934136;29;19915;-74
2022/01/17 12:52:16;;;;;;;2.63;0.93;;;;;;;;;;4934504;29;20477;-74
2022/01/17 12:54:45;;;;;;;4.53;1.15;;;;;;;;;;4934926;29;20027;-74
2022/01/17 12:57:10;;;;;;;3.00;1.00;;;;;;;;;;4934823;29;20031;-74
2022/01/17 12:59:35;;;;;;;3.85;0.90;;;;;;;;;;4935239;29;20083;-74
2022/01/17 13:02:02;;;;;;;1.77;0.68;;;;;;;;;;4934140;29;20477;-74
2022/01/17 13:04:31;;;;;;;3.17;0.90;;;;;;;;;;4916409;29;20028;-74
2022/01/17 13:06:56;;;;;;;3.22;0.98;;;;;;;;;;4934104;29;20023;-74
2022/01/17 13:09:24;;;;;;;5.78;1.00;;;;;;;;;;4935481;29;20119;-74
2022/01/17 13:11:51;;;;;;;2.03;0.80;;;;;;;;;;4921191;29;20039;-74
2022/01/17 13:14:20;;;;;;;2.38;0.80;;;;;;;;;;4920054;29;20027;-74
2022/01/17 13:16:47;;;;;;;4.03;0.85;;;;;;;;;;4937186;29;20039;-73
2022/01/17 13:19:13;;;;;;;3.38;0.80;;;;;;;;;;4936988;29;20032;-74
2022/01/17 13:21:40;;;;;;;2.47;1.08;;;;;;;;;;4937475;29;20036;-73
2022/01/17 13:24:32;;;;;;;1.88;0.95;;;;;;;;;;4938232;29;20027;-73
2022/01/17 13:26:59;;;;;;;2.78;1.13;;;;;;;;;;4932239;29;20027;-73
2022/01/17 13:29:25;;;;;;;9.88;1.80;;;;;;;;;;4936284;29;20039;-74
2022/01/17 13:31:51;;;;;;;7.93;1.30;;;;;;;;;;4919971;29;20019;-74
2022/01/17 13:34:24;;;;;;;5.10;1.27;;;;;;;;;;4936670;29;20069;-74
2022/01/17 13:36:50;;;;;;;4.85;1.25;;;;;;;;;;4931768;29;20032;-74
2022/01/17 13:39:19;;;;;;;4.57;2.03;;;;;;;;;;4936812;29;20405;-74
2022/01/17 13:41:46;;;;;;;5.82;1.63;;;;;;;;;;4937146;29;20504;-75
2022/01/17 13:44:11;;;;;;;6.90;2.78;;;;;;;;;;4936893;29;20508;-74
2022/01/17 13:46:38;;;;;;;8.27;2.00;;;;;;;;;;4919460;29;20165;-74
2022/01/17 13:49:03;;;;;;;10.85;2.67;;;;;;;;;;4937934;29;20148;-75
2022/01/17 13:51:30;;;;;;;4.30;1.70;;;;;;;;;;4919208;29;20134;-75
2022/01/17 13:53:55;;;;;;;11.95;2.05;;;;;;;;;;4919876;29;20027;-75
2022/01/17 13:56:21;;;;;;;10.18;1.90;;;;;;;;;;4936590;29;20034;-75
2022/01/17 13:58:48;;;;;;;8.73;1.85;;;;;;;;;;4936762;29;20432;-75
2022/01/17 14:01:14;;;;;;;11.50;1.40;;;;;;;;;;4937331;29;20035;-75
2022/01/17 14:03:40;;;;;;;19.30;1.83;;;;;;;;;;4930024;29;20082;-75
2022/01/17 14:06:09;;;;;;;9.32;1.65;;;;;;;;;;4937279;29;20032;-75
2022/01/17 14:08:40;;;;;;;12.18;2.22;;;;;;;;;;4936965;29;20047;-75
2022/01/17 14:11:07;;;;;;;16.25;2.40;;;;;;;;;;4937188;29;20523;-75
2022/01/17 14:13:34;;;;;;;13.93;2.40;;;;;;;;;;4924536;29;20108;-75
2022/01/17 14:16:11;;;;;;;13.55;1.80;;;;;;;;;;4937800;29;20059;-75
2022/01/17 14:19:03;;;;;;;11.80;1.83;;;;;;;;;;4936453;29;20027;-75
2022/01/17 14:21:32;;;;;;;26.83;2.95;;;;;;;;;;4905921;29;20063;-75
2022/01/17 14:24:03;;;;;;;8.50;1.70;;;;;;;;;;4938390;29;20030;-75
2022/01/17 14:26:29;;;;;;;8.32;1.85;;;;;;;;;;4937995;29;20020;-75
2022/01/17 14:28:54;;;;;;;14.77;2.45;;;;;;;;;;4937000;29;20031;-75
2022/01/17 14:31:19;;;;;;;13.13;1.50;;;;;;;;;;4936680;29;20561;-75
2022/01/17 14:33:51;;;;;;;8.93;1.45;;;;;;;;;;4919977;29;20030;-75
2022/01/17 14:36:18;;;;;;;8.07;1.77;;;;;;;;;;4936248;29;20047;-75
2022/01/17 14:38:47;;;;;;;11.23;1.45;;;;;;;;;;4936802;29;20020;-75
2022/01/17 14:41:23;;;;;;;17.27;3.03;;;;;;;;;;4936423;29;20663;-75
2022/01/17 14:43:52;;;;;;;15.20;3.13;;;;;;;;;;4940360;29;20160;-75
2022/01/17 14:46:17;;;;;;;11.55;2.00;;;;;;;;;;4921453;29;20032;-75
2022/01/17 14:48:43;;;;;;;14.82;2.05;;;;;;;;;;4940755;29;20370;-75
2022/01/17 14:51:20;;;;;;;12.60;2.00;;;;;;;;;;4919689;29;20024;-75
2022/01/17 14:53:47;;;;;;;6.68;1.80;;;;;;;;;;4930579;29;20039;-75
2022/01/17 15:01:51;;;;;;;9.45;1.75;;;;;;;;;;4935837;29;20213;-75
2022/01/17 15:04:16;;;;;;;15.38;2.53;;;;;;;;;;4919190;29;20087;-75
2022/01/17 15:06:43;;;;;;;9.13;2.35;;;;;;;;;;4937822;29;20023;-75
2022/01/17 15:09:09;;;;;;;15.32;2.40;;;;;;;;;;4936657;29;20034;-75